sensor_id;sensor_type;location;lat;lon;timestamp;P1;durP1;ratioP1;P2;durP2;ratioP2
33912;SDS011;20200;52.084;5.224;2022-07-04T00:00:33;9.21;;;4.3;;
33912;SDS011;20200;52.084;5.224;2022-07-04T00:02:19;10.21;;;5.0;;
33912;SDS011;20200;52.084;5.224;2022-07-04T00:04:06;11.5;;;5.2;;
33912;SDS011;20200;52.084;5.224;2022-07-04T00:05:52;11.1;;;5.4;;
33912;SDS011;20200;52.084;5.224;2022-07-04T00:07:38;8.2;;;4.7;;
33912;SDS011;20200;52.084;5.224;2022-07-04T00:11:14;10.4;;;4.7;;
33912;SDS011;20200;52.084;5.224;2022-07-04T00:13:00;10.21;;;4.7;;
33912;SDS011;20200;52.084;5.224;2022-07-04T00:14:46;10.7;;;4.5;;
33912;SDS011;20200;52.084;5.224;2022-07-04T00:16:34;10.5;;;4.5;;
33912;SDS011;20200;52.084;5.224;2022-07-04T00:18:21;10.9;;;4.61;;
33912;SDS011;20200;52.084;5.224;2022-07-04T00:20:07;13.1;;;4.61;;
33912;SDS011;20200;52.084;5.224;2022-07-04T00:23:42;9.0;;;4.7;;
33912;SDS011;20200;52.084;5.224;2022-07-04T00:27:14;9.81;;;4.7;;
33912;SDS011;20200;52.084;5.224;2022-07-04T00:29:01;7.3;;;4.0;;
33912;SDS011;20200;52.084;5.224;2022-07-04T00:30:47;9.0;;;4.5;;
33912;SDS011;20200;52.084;5.224;2022-07-04T00:34:21;9.5;;;4.1;;
33912;SDS011;20200;52.084;5.224;2022-07-04T00:36:08;10.6;;;4.91;;
33912;SDS011;20200;52.084;5.224;2022-07-04T00:37:54;7.5;;;4.7;;
33912;SDS011;20200;52.084;5.224;2022-07-04T00:39:40;9.1;;;4.5;;
33912;SDS011;20200;52.084;5.224;2022-07-04T00:41:27;9.81;;;4.5;;
33912;SDS011;20200;52.084;5.224;2022-07-04T00:43:16;10.1;;;4.8;;
33912;SDS011;20200;52.084;5.224;2022-07-04T00:46:55;9.31;;;5.11;;
33912;SDS011;20200;52.084;5.224;2022-07-04T00:50:28;9.21;;;4.61;;
33912;SDS011;20200;52.084;5.224;2022-07-04T00:52:14;6.5;;;4.0;;
33912;SDS011;20200;52.084;5.224;2022-07-04T00:54:02;9.0;;;4.5;;
33912;SDS011;20200;52.084;5.224;2022-07-04T00:55:51;9.21;;;4.8;;
33912;SDS011;20200;52.084;5.224;2022-07-04T00:59:25;9.5;;;4.91;;
33912;SDS011;20200;52.084;5.224;2022-07-04T01:01:12;10.7;;;5.0;;
33912;SDS011;20200;52.084;5.224;2022-07-04T01:02:59;9.71;;;5.4;;
33912;SDS011;20200;52.084;5.224;2022-07-04T01:04:45;10.5;;;6.0;;
33912;SDS011;20200;52.084;5.224;2022-07-04T01:06:32;10.4;;;6.4;;
33912;SDS011;20200;52.084;5.224;2022-07-04T01:08:19;11.2;;;6.2;;
33912;SDS011;20200;52.084;5.224;2022-07-04T01:11:53;9.0;;;6.0;;
33912;SDS011;20200;52.084;5.224;2022-07-04T01:13:41;13.9;;;6.9;;
33912;SDS011;20200;52.084;5.224;2022-07-04T01:15:28;13.1;;;7.1;;
33912;SDS011;20200;52.084;5.224;2022-07-04T01:17:14;12.8;;;7.3;;
33912;SDS011;20200;52.084;5.224;2022-07-04T01:19:00;11.9;;;7.0;;
33912;SDS011;20200;52.084;5.224;2022-07-04T01:20:49;11.7;;;8.0;;
33912;SDS011;20200;52.084;5.224;2022-07-04T01:24:21;13.2;;;8.0;;
33912;SDS011;20200;52.084;5.224;2022-07-04T01:26:07;10.5;;;7.7;;
33912;SDS011;20200;52.084;5.224;2022-07-04T01:27:54;14.6;;;8.5;;
33912;SDS011;20200;52.084;5.224;2022-07-04T01:29:40;13.7;;;8.6;;
33912;SDS011;20200;52.084;5.224;2022-07-04T01:31:27;15.9;;;8.81;;
33912;SDS011;20200;52.084;5.224;2022-07-04T01:35:00;13.4;;;9.4;;
33912;SDS011;20200;52.084;5.224;2022-07-04T01:36:46;16.7;;;10.8;;
33912;SDS011;20200;52.084;5.224;2022-07-04T01:38:33;13.8;;;10.0;;
33912;SDS011;20200;52.084;5.224;2022-07-04T01:40:19;14.4;;;9.71;;
33912;SDS011;20200;52.084;5.224;2022-07-04T01:42:06;15.8;;;10.3;;
33912;SDS011;20200;52.084;5.224;2022-07-04T01:43:53;14.7;;;9.9;;
33912;SDS011;20200;52.084;5.224;2022-07-04T01:47:27;13.5;;;9.21;;
33912;SDS011;20200;52.084;5.224;2022-07-04T01:49:14;16.4;;;10.21;;
33912;SDS011;20200;52.084;5.224;2022-07-04T01:51:00;15.8;;;9.71;;
33912;SDS011;20200;52.084;5.224;2022-07-04T01:52:46;13.2;;;10.8;;
33912;SDS011;20200;52.084;5.224;2022-07-04T01:54:32;14.4;;;10.1;;
33912;SDS011;20200;52.084;5.224;2022-07-04T01:56:19;15.6;;;10.7;;
33912;SDS011;20200;52.084;5.224;2022-07-04T02:02:55;18.2;;;12.4;;
33912;SDS011;20200;52.084;5.224;2022-07-04T02:04:42;16.4;;;12.0;;
33912;SDS011;20200;52.084;5.224;2022-07-04T02:08:16;16.8;;;11.0;;
33912;SDS011;20200;52.084;5.224;2022-07-04T02:10:03;13.2;;;9.31;;
33912;SDS011;20200;52.084;5.224;2022-07-04T02:14:54;16.7;;;12.5;;
33912;SDS011;20200;52.084;5.224;2022-07-04T02:16:41;15.6;;;12.0;;
33912;SDS011;20200;52.084;5.224;2022-07-04T02:18:28;17.11;;;13.0;;
33912;SDS011;20200;52.084;5.224;2022-07-04T02:20:14;17.5;;;13.5;;
33912;SDS011;20200;52.084;5.224;2022-07-04T02:22:02;16.11;;;12.8;;
33912;SDS011;20200;52.084;5.224;2022-07-04T02:23:50;17.8;;;13.1;;
33912;SDS011;20200;52.084;5.224;2022-07-04T02:25:36;15.6;;;11.2;;
33912;SDS011;20200;52.084;5.224;2022-07-04T02:29:09;18.2;;;13.1;;
33912;SDS011;20200;52.084;5.224;2022-07-04T02:30:55;15.0;;;11.6;;
33912;SDS011;20200;52.084;5.224;2022-07-04T02:32:41;16.0;;;13.0;;
33912;SDS011;20200;52.084;5.224;2022-07-04T02:34:29;16.0;;;12.5;;
33912;SDS011;20200;52.084;5.224;2022-07-04T02:36:16;15.2;;;12.7;;
33912;SDS011;20200;52.084;5.224;2022-07-04T02:39:48;13.4;;;11.1;;
33912;SDS011;20200;52.084;5.224;2022-07-04T02:41:34;17.5;;;13.8;;
33912;SDS011;20200;52.084;5.224;2022-07-04T02:43:21;20.5;;;14.7;;
33912;SDS011;20200;52.084;5.224;2022-07-04T02:45:08;17.7;;;13.6;;
33912;SDS011;20200;52.084;5.224;2022-07-04T02:46:55;20.8;;;15.4;;
33912;SDS011;20200;52.084;5.224;2022-07-04T02:48:42;20.8;;;14.2;;
33912;SDS011;20200;52.084;5.224;2022-07-04T02:52:15;17.91;;;14.2;;
33912;SDS011;20200;52.084;5.224;2022-07-04T02:54:02;19.2;;;15.3;;
33912;SDS011;20200;52.084;5.224;2022-07-04T02:55:48;16.5;;;14.1;;
33912;SDS011;20200;52.084;5.224;2022-07-04T02:57:37;17.7;;;14.8;;
33912;SDS011;20200;52.084;5.224;2022-07-04T02:59:23;19.41;;;14.0;;
33912;SDS011;20200;52.084;5.224;2022-07-04T03:01:10;14.3;;;12.8;;
33912;SDS011;20200;52.084;5.224;2022-07-04T03:04:42;19.5;;;15.7;;
33912;SDS011;20200;52.084;5.224;2022-07-04T03:06:28;18.0;;;14.4;;
33912;SDS011;20200;52.084;5.224;2022-07-04T03:08:16;23.8;;;15.5;;
33912;SDS011;20200;52.084;5.224;2022-07-04T03:10:03;20.9;;;15.1;;
33912;SDS011;20200;52.084;5.224;2022-07-04T03:11:50;19.91;;;16.5;;
33912;SDS011;20200;52.084;5.224;2022-07-04T03:15:25;19.7;;;15.3;;
33912;SDS011;20200;52.084;5.224;2022-07-04T03:17:11;20.8;;;16.4;;
33912;SDS011;20200;52.084;5.224;2022-07-04T03:18:58;20.9;;;16.4;;
33912;SDS011;20200;52.084;5.224;2022-07-04T03:20:45;18.5;;;15.0;;
33912;SDS011;20200;52.084;5.224;2022-07-04T03:22:32;20.2;;;15.7;;
33912;SDS011;20200;52.084;5.224;2022-07-04T03:24:18;19.2;;;15.6;;
33912;SDS011;20200;52.084;5.224;2022-07-04T03:27:51;21.5;;;16.61;;
33912;SDS011;20200;52.084;5.224;2022-07-04T03:29:37;17.5;;;14.8;;
33912;SDS011;20200;52.084;5.224;2022-07-04T03:31:24;16.7;;;14.4;;
33912;SDS011;20200;52.084;5.224;2022-07-04T03:33:12;15.8;;;14.2;;
33912;SDS011;20200;52.084;5.224;2022-07-04T03:34:58;19.7;;;15.3;;
33912;SDS011;20200;52.084;5.224;2022-07-04T03:36:44;25.3;;;17.0;;
33912;SDS011;20200;52.084;5.224;2022-07-04T03:40:16;21.9;;;16.8;;
33912;SDS011;20200;52.084;5.224;2022-07-04T03:42:04;17.2;;;15.3;;
33912;SDS011;20200;52.084;5.224;2022-07-04T03:43:51;16.7;;;14.4;;
33912;SDS011;20200;52.084;5.224;2022-07-04T03:45:37;15.4;;;13.8;;
33912;SDS011;20200;52.084;5.224;2022-07-04T03:47:23;18.3;;;14.5;;
33912;SDS011;20200;52.084;5.224;2022-07-04T03:50:56;20.8;;;16.0;;
33912;SDS011;20200;52.084;5.224;2022-07-04T03:52:43;18.41;;;15.9;;
33912;SDS011;20200;52.084;5.224;2022-07-04T03:54:31;16.9;;;14.1;;
33912;SDS011;20200;52.084;5.224;2022-07-04T03:56:17;16.9;;;14.1;;
33912;SDS011;20200;52.084;5.224;2022-07-04T03:58:04;22.0;;;17.61;;
33912;SDS011;20200;52.084;5.224;2022-07-04T03:59:51;20.41;;;17.7;;
33912;SDS011;20200;52.084;5.224;2022-07-04T04:06:27;23.5;;;18.41;;
33912;SDS011;20200;52.084;5.224;2022-07-04T04:08:14;22.9;;;18.91;;
33912;SDS011;20200;52.084;5.224;2022-07-04T04:11:47;26.1;;;18.7;;
33912;SDS011;20200;52.084;5.224;2022-07-04T04:13:33;21.0;;;17.3;;
33912;SDS011;20200;52.084;5.224;2022-07-04T04:15:19;24.1;;;17.91;;
33912;SDS011;20200;52.084;5.224;2022-07-04T04:17:07;21.3;;;16.11;;
33912;SDS011;20200;52.084;5.224;2022-07-04T04:18:53;20.5;;;17.11;;
33912;SDS011;20200;52.084;5.224;2022-07-04T04:20:39;20.0;;;16.2;;
33912;SDS011;20200;52.084;5.224;2022-07-04T04:24:13;25.5;;;18.8;;
33912;SDS011;20200;52.084;5.224;2022-07-04T04:25:59;21.7;;;17.2;;
33912;SDS011;20200;52.084;5.224;2022-07-04T04:27:45;23.8;;;17.91;;
33912;SDS011;20200;52.084;5.224;2022-07-04T04:29:32;19.0;;;15.6;;
33912;SDS011;20200;52.084;5.224;2022-07-04T04:31:18;25.5;;;16.9;;
33912;SDS011;20200;52.084;5.224;2022-07-04T04:34:51;21.7;;;17.7;;
33912;SDS011;20200;52.084;5.224;2022-07-04T04:36:37;16.4;;;14.1;;
33912;SDS011;20200;52.084;5.224;2022-07-04T04:38:23;22.0;;;16.4;;
33912;SDS011;20200;52.084;5.224;2022-07-04T04:40:11;21.0;;;16.8;;
33912;SDS011;20200;52.084;5.224;2022-07-04T04:41:58;24.2;;;19.0;;
33912;SDS011;20200;52.084;5.224;2022-07-04T04:43:44;24.2;;;19.0;;
33912;SDS011;20200;52.084;5.224;2022-07-04T04:47:16;29.7;;;20.2;;
33912;SDS011;20200;52.084;5.224;2022-07-04T04:49:02;20.41;;;15.9;;
33912;SDS011;20200;52.084;5.224;2022-07-04T04:50:49;23.5;;;17.91;;
33912;SDS011;20200;52.084;5.224;2022-07-04T04:52:35;26.3;;;19.2;;
33912;SDS011;20200;52.084;5.224;2022-07-04T04:54:22;24.0;;;15.9;;
33912;SDS011;20200;52.084;5.224;2022-07-04T04:57:55;27.0;;;17.0;;
33912;SDS011;20200;52.084;5.224;2022-07-04T04:59:41;25.5;;;17.61;;
33912;SDS011;20200;52.084;5.224;2022-07-04T05:01:28;28.6;;;17.41;;
33912;SDS011;20200;52.084;5.224;2022-07-04T05:03:14;21.9;;;15.4;;
33912;SDS011;20200;52.084;5.224;2022-07-04T05:05:02;23.6;;;16.0;;
33912;SDS011;20200;52.084;5.224;2022-07-04T05:06:49;23.7;;;15.1;;
33912;SDS011;20200;52.084;5.224;2022-07-04T05:10:23;24.2;;;14.8;;
33912;SDS011;20200;52.084;5.224;2022-07-04T05:12:09;24.1;;;15.0;;
33912;SDS011;20200;52.084;5.224;2022-07-04T05:13:56;22.3;;;14.2;;
33912;SDS011;20200;52.084;5.224;2022-07-04T05:15:43;20.0;;;14.1;;
33912;SDS011;20200;52.084;5.224;2022-07-04T05:19:15;26.0;;;16.7;;
33912;SDS011;20200;52.084;5.224;2022-07-04T05:22:48;25.7;;;16.4;;
33912;SDS011;20200;52.084;5.224;2022-07-04T05:24:39;25.6;;;14.9;;
33912;SDS011;20200;52.084;5.224;2022-07-04T05:26:25;24.9;;;15.1;;
33912;SDS011;20200;52.084;5.224;2022-07-04T05:28:12;22.4;;;14.3;;
33912;SDS011;20200;52.084;5.224;2022-07-04T05:29:58;23.6;;;14.9;;
33912;SDS011;20200;52.084;5.224;2022-07-04T05:33:31;25.5;;;14.9;;
33912;SDS011;20200;52.084;5.224;2022-07-04T05:35:17;21.2;;;14.1;;
33912;SDS011;20200;52.084;5.224;2022-07-04T05:37:04;20.5;;;14.5;;
33912;SDS011;20200;52.084;5.224;2022-07-04T05:38:51;25.6;;;14.5;;
33912;SDS011;20200;52.084;5.224;2022-07-04T05:40:38;24.7;;;15.2;;
33912;SDS011;20200;52.084;5.224;2022-07-04T05:42:24;24.2;;;14.5;;
33912;SDS011;20200;52.084;5.224;2022-07-04T05:45:57;24.0;;;14.0;;
33912;SDS011;20200;52.084;5.224;2022-07-04T05:47:44;24.2;;;13.9;;
33912;SDS011;20200;52.084;5.224;2022-07-04T05:49:31;22.0;;;12.7;;
33912;SDS011;20200;52.084;5.224;2022-07-04T05:51:17;23.1;;;13.9;;
33912;SDS011;20200;52.084;5.224;2022-07-04T05:53:03;23.8;;;13.8;;
33912;SDS011;20200;52.084;5.224;2022-07-04T05:54:49;22.2;;;13.5;;
33912;SDS011;20200;52.084;5.224;2022-07-04T05:58:24;27.8;;;13.7;;
33912;SDS011;20200;52.084;5.224;2022-07-04T06:00:11;21.8;;;12.9;;
33912;SDS011;20200;52.084;5.224;2022-07-04T06:01:59;21.7;;;13.0;;
33912;SDS011;20200;52.084;5.224;2022-07-04T06:03:46;19.8;;;11.8;;
33912;SDS011;20200;52.084;5.224;2022-07-04T06:05:32;26.2;;;12.4;;
33912;SDS011;20200;52.084;5.224;2022-07-04T06:09:04;20.2;;;10.8;;
33912;SDS011;20200;52.084;5.224;2022-07-04T06:10:51;24.2;;;11.6;;
33912;SDS011;20200;52.084;5.224;2022-07-04T06:12:38;22.7;;;10.9;;
33912;SDS011;20200;52.084;5.224;2022-07-04T06:14:24;27.0;;;10.21;;
33912;SDS011;20200;52.084;5.224;2022-07-04T06:16:10;18.8;;;10.0;;
33912;SDS011;20200;52.084;5.224;2022-07-04T06:17:56;20.11;;;9.31;;
33912;SDS011;20200;52.084;5.224;2022-07-04T06:21:30;20.11;;;9.31;;
33912;SDS011;20200;52.084;5.224;2022-07-04T06:23:16;24.6;;;10.0;;
33912;SDS011;20200;52.084;5.224;2022-07-04T06:25:03;24.8;;;10.6;;
33912;SDS011;20200;52.084;5.224;2022-07-04T06:26:51;25.9;;;10.7;;
33912;SDS011;20200;52.084;5.224;2022-07-04T06:28:37;23.8;;;10.5;;
33912;SDS011;20200;52.084;5.224;2022-07-04T06:30:24;24.2;;;10.5;;
33912;SDS011;20200;52.084;5.224;2022-07-04T06:36:59;23.0;;;10.1;;
33912;SDS011;20200;52.084;5.224;2022-07-04T06:38:46;21.8;;;9.1;;
33912;SDS011;20200;52.084;5.224;2022-07-04T06:42:20;22.5;;;10.7;;
33912;SDS011;20200;52.084;5.224;2022-07-04T06:44:06;22.0;;;10.21;;
33912;SDS011;20200;52.084;5.224;2022-07-04T06:45:53;24.9;;;10.8;;
33912;SDS011;20200;52.084;5.224;2022-07-04T06:47:40;25.0;;;11.2;;
33912;SDS011;20200;52.084;5.224;2022-07-04T06:49:26;27.7;;;11.1;;
33912;SDS011;20200;52.084;5.224;2022-07-04T06:53:00;27.7;;;11.1;;
33912;SDS011;20200;52.084;5.224;2022-07-04T06:54:48;25.6;;;11.3;;
33912;SDS011;20200;52.084;5.224;2022-07-04T06:56:35;23.6;;;11.0;;
33912;SDS011;20200;52.084;5.224;2022-07-04T06:58:22;26.2;;;11.2;;
33912;SDS011;20200;52.084;5.224;2022-07-04T07:00:08;23.7;;;10.0;;
33912;SDS011;20200;52.084;5.224;2022-07-04T07:01:56;22.2;;;11.1;;
33912;SDS011;20200;52.084;5.224;2022-07-04T07:05:29;25.3;;;9.9;;
33912;SDS011;20200;52.084;5.224;2022-07-04T07:07:17;25.4;;;9.71;;
33912;SDS011;20200;52.084;5.224;2022-07-04T07:09:03;23.0;;;9.5;;
33912;SDS011;20200;52.084;5.224;2022-07-04T07:10:50;24.2;;;10.1;;
33912;SDS011;20200;52.084;5.224;2022-07-04T07:12:37;22.9;;;10.4;;
33912;SDS011;20200;52.084;5.224;2022-07-04T07:14:23;22.6;;;10.0;;
33912;SDS011;20200;52.084;5.224;2022-07-04T07:17:57;22.5;;;10.4;;
33912;SDS011;20200;52.084;5.224;2022-07-04T07:19:44;21.7;;;9.21;;
33912;SDS011;20200;52.084;5.224;2022-07-04T07:21:31;22.3;;;10.1;;
33912;SDS011;20200;52.084;5.224;2022-07-04T07:23:18;21.3;;;10.1;;
33912;SDS011;20200;52.084;5.224;2022-07-04T07:25:04;21.0;;;9.4;;
33912;SDS011;20200;52.084;5.224;2022-07-04T07:26:51;21.3;;;9.9;;
33912;SDS011;20200;52.084;5.224;2022-07-04T07:30:25;21.9;;;9.6;;
33912;SDS011;20200;52.084;5.224;2022-07-04T07:32:13;20.11;;;9.5;;
33912;SDS011;20200;52.084;5.224;2022-07-04T07:34:00;19.0;;;8.81;;
33912;SDS011;20200;52.084;5.224;2022-07-04T07:35:46;22.5;;;9.0;;
33912;SDS011;20200;52.084;5.224;2022-07-04T07:37:32;17.11;;;8.2;;
33912;SDS011;20200;52.084;5.224;2022-07-04T07:41:07;20.7;;;7.7;;
33912;SDS011;20200;52.084;5.224;2022-07-04T07:42:54;17.61;;;7.5;;
33912;SDS011;20200;52.084;5.224;2022-07-04T07:44:41;18.41;;;7.1;;
33912;SDS011;20200;52.084;5.224;2022-07-04T07:46:28;14.8;;;5.2;;
33912;SDS011;20200;52.084;5.224;2022-07-04T07:48:14;12.0;;;4.91;;
33912;SDS011;20200;52.084;5.224;2022-07-04T07:50:04;13.4;;;4.3;;
33912;SDS011;20200;52.084;5.224;2022-07-04T07:53:39;12.9;;;4.2;;
33912;SDS011;20200;52.084;5.224;2022-07-04T07:55:25;12.5;;;4.41;;
33912;SDS011;20200;52.084;5.224;2022-07-04T07:57:12;12.5;;;4.2;;
33912;SDS011;20200;52.084;5.224;2022-07-04T07:58:58;20.5;;;6.7;;
33912;SDS011;20200;52.084;5.224;2022-07-04T08:00:44;15.8;;;5.4;;
33912;SDS011;20200;52.084;5.224;2022-07-04T08:05:33;8.81;;;3.5;;
33912;SDS011;20200;52.084;5.224;2022-07-04T08:07:19;8.6;;;3.2;;
33912;SDS011;20200;52.084;5.224;2022-07-04T08:09:05;7.4;;;2.9;;
33912;SDS011;20200;52.084;5.224;2022-07-04T08:10:52;11.0;;;3.3;;
33912;SDS011;20200;52.084;5.224;2022-07-04T08:14:26;8.31;;;3.2;;
33912;SDS011;20200;52.084;5.224;2022-07-04T08:16:13;9.81;;;3.9;;
33912;SDS011;20200;52.084;5.224;2022-07-04T08:18:00;10.3;;;3.4;;
33912;SDS011;20200;52.084;5.224;2022-07-04T08:19:47;9.21;;;3.3;;
33912;SDS011;20200;52.084;5.224;2022-07-04T08:21:34;8.4;;;2.7;;
33912;SDS011;20200;52.084;5.224;2022-07-04T08:23:23;7.9;;;2.8;;
33912;SDS011;20200;52.084;5.224;2022-07-04T08:26:58;7.1;;;2.8;;
33912;SDS011;20200;52.084;5.224;2022-07-04T08:28:44;7.1;;;2.7;;
33912;SDS011;20200;52.084;5.224;2022-07-04T08:30:31;6.8;;;3.0;;
33912;SDS011;20200;52.084;5.224;2022-07-04T08:32:18;6.6;;;2.8;;
33912;SDS011;20200;52.084;5.224;2022-07-04T08:34:05;10.3;;;3.1;;
33912;SDS011;20200;52.084;5.224;2022-07-04T08:37:40;8.5;;;2.7;;
33912;SDS011;20200;52.084;5.224;2022-07-04T08:39:28;8.9;;;2.8;;
33912;SDS011;20200;52.084;5.224;2022-07-04T08:41:16;7.0;;;2.8;;
33912;SDS011;20200;52.084;5.224;2022-07-04T08:43:04;10.4;;;3.1;;
33912;SDS011;20200;52.084;5.224;2022-07-04T08:44:52;10.21;;;3.0;;
33912;SDS011;20200;52.084;5.224;2022-07-04T08:46:40;8.9;;;3.0;;
33912;SDS011;20200;52.084;5.224;2022-07-04T08:48:27;10.9;;;3.0;;
33912;SDS011;20200;52.084;5.224;2022-07-04T08:52:15;9.21;;;3.0;;
33912;SDS011;20200;52.084;5.224;2022-07-04T09:00:21;8.5;;;3.0;;
33912;SDS011;20200;52.084;5.224;2022-07-04T09:02:08;6.8;;;2.7;;
33912;SDS011;20200;52.084;5.224;2022-07-04T09:03:54;6.8;;;2.7;;
33912;SDS011;20200;52.084;5.224;2022-07-04T09:05:42;6.6;;;3.0;;
33912;SDS011;20200;52.084;5.224;2022-07-04T09:07:29;8.9;;;3.0;;
33912;SDS011;20200;52.084;5.224;2022-07-04T09:11:03;7.0;;;2.6;;
33912;SDS011;20200;52.084;5.224;2022-07-04T09:12:50;11.2;;;3.0;;
33912;SDS011;20200;52.084;5.224;2022-07-04T09:14:37;8.2;;;2.8;;
33912;SDS011;20200;52.084;5.224;2022-07-04T09:16:25;8.4;;;2.7;;
33912;SDS011;20200;52.084;5.224;2022-07-04T09:18:20;8.4;;;2.6;;
33912;SDS011;20200;52.084;5.224;2022-07-04T09:20:10;5.8;;;2.5;;
33912;SDS011;20200;52.084;5.224;2022-07-04T09:22:02;8.6;;;3.3;;
33912;SDS011;20200;52.084;5.224;2022-07-04T09:25:35;6.6;;;2.6;;
33912;SDS011;20200;52.084;5.224;2022-07-04T09:27:30;7.6;;;2.7;;
33912;SDS011;20200;52.084;5.224;2022-07-04T09:29:18;7.4;;;2.7;;
33912;SDS011;20200;52.084;5.224;2022-07-04T09:31:12;6.3;;;2.6;;
33912;SDS011;20200;52.084;5.224;2022-07-04T09:33:07;5.7;;;2.6;;
33912;SDS011;20200;52.084;5.224;2022-07-04T09:34:53;5.7;;;2.6;;
33912;SDS011;20200;52.084;5.224;2022-07-04T09:36:43;7.6;;;2.4;;
33912;SDS011;20200;52.084;5.224;2022-07-04T09:40:20;6.6;;;2.5;;
33912;SDS011;20200;52.084;5.224;2022-07-04T09:42:11;9.5;;;2.9;;
33912;SDS011;20200;52.084;5.224;2022-07-04T09:43:59;6.4;;;2.4;;
33912;SDS011;20200;52.084;5.224;2022-07-04T09:45:55;6.4;;;2.4;;
33912;SDS011;20200;52.084;5.224;2022-07-04T09:47:45;7.5;;;3.0;;
33912;SDS011;20200;52.084;5.224;2022-07-04T09:49:31;9.0;;;2.9;;
33912;SDS011;20200;52.084;5.224;2022-07-04T09:51:22;6.8;;;2.8;;
33912;SDS011;20200;52.084;5.224;2022-07-04T09:53:25;11.1;;;3.1;;
33912;SDS011;20200;52.084;5.224;2022-07-04T09:57:08;9.1;;;3.2;;
33912;SDS011;20200;52.084;5.224;2022-07-04T09:58:56;8.6;;;3.1;;
33912;SDS011;20200;52.084;5.224;2022-07-04T10:00:43;10.8;;;3.4;;
33912;SDS011;20200;52.084;5.224;2022-07-04T10:02:32;12.0;;;3.8;;
33912;SDS011;20200;52.084;5.224;2022-07-04T10:04:21;9.71;;;3.6;;
33912;SDS011;20200;52.084;5.224;2022-07-04T10:06:09;12.2;;;3.8;;
33912;SDS011;20200;52.084;5.224;2022-07-04T10:07:57;12.0;;;3.5;;
33912;SDS011;20200;52.084;5.224;2022-07-04T10:11:32;9.6;;;3.8;;
33912;SDS011;20200;52.084;5.224;2022-07-04T10:13:19;8.81;;;3.2;;
33912;SDS011;20200;52.084;5.224;2022-07-04T10:15:07;8.81;;;2.9;;
33912;SDS011;20200;52.084;5.224;2022-07-04T10:16:55;6.1;;;2.6;;
33912;SDS011;20200;52.084;5.224;2022-07-04T10:18:41;5.9;;;2.9;;
33912;SDS011;20200;52.084;5.224;2022-07-04T10:22:14;3.8;;;2.31;;
33912;SDS011;20200;52.084;5.224;2022-07-04T10:24:03;4.91;;;2.21;;
33912;SDS011;20200;52.084;5.224;2022-07-04T10:25:50;4.91;;;2.21;;
33912;SDS011;20200;52.084;5.224;2022-07-04T10:27:38;8.1;;;2.7;;
33912;SDS011;20200;52.084;5.224;2022-07-04T10:29:25;7.5;;;2.8;;
33912;SDS011;20200;52.084;5.224;2022-07-04T10:31:13;8.5;;;2.8;;
33912;SDS011;20200;52.084;5.224;2022-07-04T10:34:51;5.9;;;2.1;;
33912;SDS011;20200;52.084;5.224;2022-07-04T10:36:37;5.11;;;2.1;;
33912;SDS011;20200;52.084;5.224;2022-07-04T10:38:24;4.3;;;2.31;;
33912;SDS011;20200;52.084;5.224;2022-07-04T10:40:19;5.5;;;2.21;;
33912;SDS011;20200;52.084;5.224;2022-07-04T10:42:28;4.61;;;2.1;;
33912;SDS011;20200;52.084;5.224;2022-07-04T10:44:20;6.5;;;2.31;;
33912;SDS011;20200;52.084;5.224;2022-07-04T10:46:23;5.0;;;2.0;;
33912;SDS011;20200;52.084;5.224;2022-07-04T10:49:16;7.2;;;2.6;;
33912;SDS011;20200;52.084;5.224;2022-07-04T10:51:06;5.5;;;2.31;;
33912;SDS011;20200;52.084;5.224;2022-07-04T10:53:08;6.9;;;2.6;;
33912;SDS011;20200;52.084;5.224;2022-07-04T10:54:56;4.5;;;2.21;;
33912;SDS011;20200;52.084;5.224;2022-07-04T10:58:37;5.3;;;2.0;;
33912;SDS011;20200;52.084;5.224;2022-07-04T11:00:30;6.5;;;1.8;;
33912;SDS011;20200;52.084;5.224;2022-07-04T11:04:44;3.7;;;1.7;;
33912;SDS011;20200;52.084;5.224;2022-07-04T11:06:49;7.9;;;2.0;;
33912;SDS011;20200;52.084;5.224;2022-07-04T11:09:22;7.1;;;1.6;;
33912;SDS011;20200;52.084;5.224;2022-07-04T11:11:23;3.9;;;1.6;;
33912;SDS011;20200;52.084;5.224;2022-07-04T11:13:34;4.8;;;1.7;;
33912;SDS011;20200;52.084;5.224;2022-07-04T11:15:40;4.2;;;1.9;;
33912;SDS011;20200;52.084;5.224;2022-07-04T11:17:52;5.3;;;1.4;;
33912;SDS011;20200;52.084;5.224;2022-07-04T11:19:40;5.8;;;2.21;;
33912;SDS011;20200;52.084;5.224;2022-07-04T11:21:28;7.1;;;2.7;;
33912;SDS011;20200;52.084;5.224;2022-07-04T11:23:16;5.11;;;1.6;;
33912;SDS011;20200;52.084;5.224;2022-07-04T11:26:51;4.3;;;1.6;;
33912;SDS011;20200;52.084;5.224;2022-07-04T11:28:41;6.8;;;2.1;;
33912;SDS011;20200;52.084;5.224;2022-07-04T11:30:27;3.5;;;1.8;;
33912;SDS011;20200;52.084;5.224;2022-07-04T11:32:13;5.3;;;1.8;;
33912;SDS011;20200;52.084;5.224;2022-07-04T11:33:59;6.2;;;1.9;;
33912;SDS011;20200;52.084;5.224;2022-07-04T11:37:55;4.7;;;1.8;;
33912;SDS011;20200;52.084;5.224;2022-07-04T11:39:43;4.91;;;1.8;;
33912;SDS011;20200;52.084;5.224;2022-07-04T11:45:05;4.1;;;1.7;;
33912;SDS011;20200;52.084;5.224;2022-07-04T11:49:06;5.6;;;1.8;;
33912;SDS011;20200;52.084;5.224;2022-07-04T11:50:54;5.6;;;1.9;;
33912;SDS011;20200;52.084;5.224;2022-07-04T11:52:40;4.1;;;1.6;;
33912;SDS011;20200;52.084;5.224;2022-07-04T11:56:16;6.7;;;1.6;;
33912;SDS011;20200;52.084;5.224;2022-07-04T11:58:03;3.2;;;1.4;;
33912;SDS011;20200;52.084;5.224;2022-07-04T11:59:51;2.7;;;1.4;;
33912;SDS011;20200;52.084;5.224;2022-07-04T12:01:43;5.3;;;1.7;;
33912;SDS011;20200;52.084;5.224;2022-07-04T12:03:31;6.2;;;1.9;;
33912;SDS011;20200;52.084;5.224;2022-07-04T12:05:18;3.6;;;1.6;;
33912;SDS011;20200;52.084;5.224;2022-07-04T12:08:59;6.5;;;1.5;;
33912;SDS011;20200;52.084;5.224;2022-07-04T12:10:46;5.3;;;1.7;;
33912;SDS011;20200;52.084;5.224;2022-07-04T12:12:32;4.1;;;1.8;;
33912;SDS011;20200;52.084;5.224;2022-07-04T12:14:18;3.9;;;1.4;;
33912;SDS011;20200;52.084;5.224;2022-07-04T12:16:05;3.5;;;1.5;;
33912;SDS011;20200;52.084;5.224;2022-07-04T12:17:57;4.91;;;1.6;;
33912;SDS011;20200;52.084;5.224;2022-07-04T12:19:52;3.4;;;1.6;;
33912;SDS011;20200;52.084;5.224;2022-07-04T12:23:29;4.2;;;1.8;;
33912;SDS011;20200;52.084;5.224;2022-07-04T12:25:19;5.7;;;1.8;;
33912;SDS011;20200;52.084;5.224;2022-07-04T12:27:16;6.4;;;1.6;;
33912;SDS011;20200;52.084;5.224;2022-07-04T12:29:09;3.0;;;1.2;;
33912;SDS011;20200;52.084;5.224;2022-07-04T12:30:56;3.8;;;1.5;;
33912;SDS011;20200;52.084;5.224;2022-07-04T12:32:47;5.3;;;1.7;;
33912;SDS011;20200;52.084;5.224;2022-07-04T12:34:35;10.3;;;4.2;;
33912;SDS011;20200;52.084;5.224;2022-07-04T12:38:08;5.8;;;2.9;;
33912;SDS011;20200;52.084;5.224;2022-07-04T12:40:06;3.6;;;1.6;;
33912;SDS011;20200;52.084;5.224;2022-07-04T12:42:02;3.6;;;1.5;;
33912;SDS011;20200;52.084;5.224;2022-07-04T12:43:51;5.7;;;1.8;;
33912;SDS011;20200;52.084;5.224;2022-07-04T12:45:41;3.7;;;1.7;;
33912;SDS011;20200;52.084;5.224;2022-07-04T12:47:30;5.0;;;1.5;;
33912;SDS011;20200;52.084;5.224;2022-07-04T12:49:17;2.31;;;1.3;;
33912;SDS011;20200;52.084;5.224;2022-07-04T12:52:57;4.41;;;1.4;;
33912;SDS011;20200;52.084;5.224;2022-07-04T12:54:45;5.4;;;1.6;;
33912;SDS011;20200;52.084;5.224;2022-07-04T12:56:49;5.0;;;1.5;;
33912;SDS011;20200;52.084;5.224;2022-07-04T12:58:36;7.3;;;1.6;;
33912;SDS011;20200;52.084;5.224;2022-07-04T13:00:23;3.0;;;1.5;;
33912;SDS011;20200;52.084;5.224;2022-07-04T13:02:09;7.6;;;1.5;;
33912;SDS011;20200;52.084;5.224;2022-07-04T13:03:57;2.5;;;1.5;;
33912;SDS011;20200;52.084;5.224;2022-07-04T13:05:45;8.9;;;1.6;;
33912;SDS011;20200;52.084;5.224;2022-07-04T13:09:18;3.1;;;1.2;;
33912;SDS011;20200;52.084;5.224;2022-07-04T13:14:09;4.2;;;1.4;;
33912;SDS011;20200;52.084;5.224;2022-07-04T13:17:45;4.5;;;1.7;;
33912;SDS011;20200;52.084;5.224;2022-07-04T13:19:31;2.9;;;1.5;;
33912;SDS011;20200;52.084;5.224;2022-07-04T13:21:18;3.3;;;1.5;;
33912;SDS011;20200;52.084;5.224;2022-07-04T13:23:05;3.7;;;1.4;;
33912;SDS011;20200;52.084;5.224;2022-07-04T13:24:51;2.6;;;1.2;;
33912;SDS011;20200;52.084;5.224;2022-07-04T13:28:23;9.1;;;1.6;;